createdAt,value
2018-09-07T00:03:20.641Z,19.90
2018-09-07T00:05:49.452Z,19.90
2018-09-07T00:08:17.936Z,19.90
2018-09-07T00:10:46.400Z,19.90
2018-09-07T00:13:14.868Z,19.90
2018-09-07T00:15:43.709Z,19.90
2018-09-07T00:18:12.173Z,20.00
2018-09-07T00:20:40.971Z,20.00
2018-09-07T00:23:09.437Z,19.90
2018-09-07T00:25:38.294Z,19.80
2018-09-07T00:28:07.092Z,19.80
2018-09-07T00:30:35.987Z,19.80
2018-09-07T00:33:04.860Z,19.80
2018-09-07T00:35:33.619Z,19.80
2018-09-07T00:38:02.478Z,19.80
2018-09-07T00:40:31.277Z,19.80
2018-09-07T00:43:00.065Z,19.80
2018-09-07T00:45:28.935Z,19.80
2018-09-07T00:47:57.727Z,19.80
2018-09-07T00:50:26.525Z,19.80
2018-09-07T00:52:55.422Z,19.80
2018-09-07T00:55:24.407Z,19.90
2018-09-07T00:57:53.197Z,19.90
2018-09-07T01:00:23.651Z,19.90
2018-09-07T01:02:52.548Z,19.90
2018-09-07T01:05:21.345Z,19.90
2018-09-07T01:07:50.144Z,19.80
2018-09-07T01:10:18.908Z,19.80
2018-09-07T01:12:47.344Z,19.80
2018-09-07T01:15:16.255Z,19.80
2018-09-07T01:17:45.486Z,19.80
2018-09-07T01:20:14.281Z,19.80
2018-09-07T01:22:43.077Z,19.80
2018-09-07T01:25:12.225Z,19.80
2018-09-07T01:27:40.663Z,19.90
2018-09-07T01:30:09.147Z,19.90
2018-09-07T01:32:40.222Z,19.80
2018-09-07T01:35:09.020Z,19.80
2018-09-07T01:37:43.292Z,19.80
2018-09-07T01:40:12.186Z,19.80
2018-09-07T01:42:41.300Z,19.70
2018-09-07T01:45:09.753Z,19.70
2018-09-07T01:47:38.561Z,19.70
2018-09-07T01:50:07.047Z,19.70
2018-09-07T01:52:35.801Z,19.70
2018-09-07T01:55:04.614Z,19.70
2018-09-07T01:57:33.408Z,19.70
2018-09-07T02:00:02.183Z,19.70
2018-09-07T02:03:33.802Z,19.70
2018-09-07T02:06:02.561Z,19.70
2018-09-07T02:08:31.691Z,19.70
2018-09-07T02:11:01.397Z,19.70
2018-09-07T02:13:31.322Z,19.70
2018-09-07T02:16:00.149Z,19.70
2018-09-07T02:18:29.381Z,19.70
2018-09-07T02:20:58.517Z,19.70
2018-09-07T02:23:27.000Z,19.70
2018-09-07T02:25:56.833Z,19.70
2018-09-07T02:28:25.297Z,19.70
2018-09-07T02:30:53.753Z,19.70
2018-09-07T02:33:22.569Z,19.70
2018-09-07T02:35:51.034Z,19.60
2018-09-07T02:38:20.898Z,19.60
2018-09-07T02:40:49.368Z,19.60
2018-09-07T02:43:17.814Z,19.50
2018-09-07T02:45:46.632Z,19.50
2018-09-07T02:48:15.520Z,19.40
2018-09-07T02:50:45.038Z,19.40
2018-09-07T02:53:13.530Z,19.40
2018-09-07T02:55:42.037Z,19.40
2018-09-07T02:58:10.491Z,19.40
2018-09-07T03:00:39.262Z,19.40
2018-09-07T03:03:07.737Z,19.40
2018-09-07T03:05:36.524Z,19.40
2018-09-07T03:08:05.800Z,19.40
2018-09-07T03:10:34.310Z,19.40
2018-09-07T03:13:03.083Z,19.40
2018-09-07T03:15:31.714Z,19.40
2018-09-07T03:18:00.289Z,19.40
2018-09-07T03:20:28.877Z,19.40
2018-09-07T03:22:57.458Z,19.40
2018-09-07T03:25:26.364Z,19.40
2018-09-07T03:27:55.257Z,19.40
2018-09-07T03:30:24.089Z,19.40
2018-09-07T03:32:52.605Z,19.40
2018-09-07T03:35:21.074Z,19.40
2018-09-07T03:37:49.551Z,19.30
2018-09-07T03:40:18.399Z,19.30
2018-09-07T03:42:47.216Z,19.40
2018-09-07T03:45:16.377Z,19.40
2018-09-07T03:47:44.928Z,19.40
2018-09-07T03:50:13.421Z,19.30
2018-09-07T03:52:42.617Z,19.30
2018-09-07T03:55:11.426Z,19.30
2018-09-07T03:57:40.630Z,19.30
2018-09-07T04:00:09.233Z,19.30
2018-09-07T04:02:38.043Z,19.30
2018-09-07T04:05:06.974Z,19.20
2018-09-07T04:07:35.615Z,19.20
2018-09-07T04:10:04.200Z,19.20
2018-09-07T04:12:32.804Z,19.10
2018-09-07T04:15:01.475Z,19.10
2018-09-07T04:17:30.679Z,19.10
2018-09-07T04:19:59.510Z,19.20
2018-09-07T04:22:28.237Z,19.10
2018-09-07T04:24:56.809Z,19.10
2018-09-07T04:27:25.623Z,19.00
2018-09-07T04:29:54.459Z,19.00
2018-09-07T04:32:23.235Z,19.00
2018-09-07T04:34:52.080Z,19.00
2018-09-07T04:37:20.577Z,19.00
2018-09-07T04:39:49.074Z,19.00
2018-09-07T04:42:18.867Z,19.00
2018-09-07T04:44:47.353Z,19.00
2018-09-07T04:47:16.131Z,19.00
2018-09-07T04:49:44.601Z,19.00
2018-09-07T04:52:13.601Z,19.00
2018-09-07T04:54:42.105Z,19.00
2018-09-07T04:57:10.730Z,19.00
2018-09-07T04:59:39.880Z,19.00
2018-09-07T05:02:09.021Z,19.00
2018-09-07T05:04:37.602Z,19.00
2018-09-07T05:07:06.677Z,19.00
2018-09-07T05:09:35.546Z,19.00
2018-09-07T05:12:05.736Z,18.90
2018-09-07T05:14:35.297Z,19.00
2018-09-07T05:17:07.349Z,19.00
2018-09-07T05:19:36.182Z,19.00
2018-09-07T05:22:20.816Z,19.10
2018-09-07T05:25:25.074Z,19.10
2018-09-07T05:34:01.561Z,19.30
2018-09-07T05:36:30.503Z,19.40
2018-09-07T05:39:00.734Z,19.40
2018-09-07T05:41:30.395Z,19.40
2018-09-07T06:01:24.076Z,19.40
2018-09-07T06:04:02.229Z,19.40
2018-09-07T06:06:31.240Z,19.40
2018-09-07T06:21:13.596Z,19.70
2018-09-07T06:23:55.131Z,19.70
2018-09-07T06:26:24.086Z,19.70
2018-09-07T06:29:04.057Z,19.80
2018-09-07T07:13:10.245Z,19.20
2018-09-07T07:15:38.969Z,19.20
2018-09-07T07:25:19.855Z,19.20
2018-09-07T07:27:53.800Z,19.10
2018-09-07T07:30:23.620Z,19.20
2018-09-07T07:32:54.374Z,19.20
2018-09-07T07:41:10.137Z,19.30
2018-09-07T07:43:38.738Z,19.30
2018-09-07T07:46:08.304Z,19.40
2018-09-07T07:48:36.993Z,19.40
2018-09-07T07:51:06.230Z,19.40
2018-09-07T07:56:30.746Z,19.50
2018-09-07T07:59:00.232Z,19.50
2018-09-07T08:01:30.419Z,19.40
2018-09-07T08:04:00.806Z,19.50
2018-09-07T08:06:29.774Z,19.50
2018-09-07T08:08:59.106Z,19.50
2018-09-07T08:12:00.683Z,19.50
2018-09-07T08:14:29.586Z,19.50
2018-09-07T08:17:10.639Z,19.50
2018-09-07T08:19:41.896Z,19.50
2018-09-07T08:22:12.208Z,19.40
2018-09-07T08:24:44.593Z,19.40
2018-09-07T08:27:13.105Z,19.50
2018-09-07T08:29:42.040Z,19.40
2018-09-07T08:32:10.606Z,19.40
2018-09-07T08:34:40.024Z,19.40
2018-09-07T08:37:09.735Z,19.40
2018-09-07T08:39:39.527Z,19.40
2018-09-07T08:42:08.871Z,19.40
2018-09-07T08:44:39.702Z,19.40
2018-09-07T08:47:08.565Z,19.40
2018-09-07T08:49:37.426Z,19.50
2018-09-07T08:52:06.357Z,19.50
2018-09-07T08:54:35.069Z,19.50
2018-09-07T08:57:05.000Z,19.60
2018-09-07T08:59:35.196Z,19.70
2018-09-07T09:02:04.056Z,19.80
2018-09-07T09:04:33.173Z,19.80
2018-09-07T09:07:02.461Z,19.90
2018-09-07T09:09:32.901Z,20.00
2018-09-07T09:12:01.767Z,19.90
2018-09-07T09:14:31.297Z,19.90
2018-09-07T09:17:01.726Z,20.00
2018-09-07T09:19:30.650Z,20.10
2018-09-07T09:21:59.877Z,20.20
2018-09-07T09:24:36.079Z,20.30
2018-09-07T09:27:04.777Z,20.40
2018-09-07T09:29:33.322Z,20.50
2018-09-07T09:32:02.219Z,20.50
2018-09-07T09:34:33.503Z,20.50
2018-09-07T09:37:02.566Z,20.60
2018-09-07T09:39:31.087Z,20.50
2018-09-07T09:42:00.080Z,20.50
2018-09-07T09:44:29.038Z,20.60
2018-09-07T09:46:57.616Z,20.50
2018-09-07T09:49:27.807Z,20.50
2018-09-07T09:51:56.450Z,20.40
2018-09-07T09:54:25.697Z,20.40
2018-09-07T09:56:57.176Z,20.30
2018-09-07T09:59:25.835Z,20.30
2018-09-07T10:02:00.937Z,20.20
2018-09-07T10:04:34.866Z,20.20
2018-09-07T10:07:04.434Z,20.20
2018-09-07T10:09:33.445Z,20.20
2018-09-07T10:12:02.130Z,20.20
2018-09-07T10:14:31.550Z,20.20
2018-09-07T10:17:00.079Z,20.30
2018-09-07T10:19:28.804Z,20.30
2018-09-07T10:21:58.165Z,20.30
2018-09-07T10:24:27.072Z,20.30
2018-09-07T10:26:56.284Z,20.30
2018-09-07T10:29:28.042Z,20.30
2018-09-07T10:31:56.672Z,20.30
2018-09-07T10:34:25.686Z,20.20
2018-09-07T10:36:54.738Z,20.30
2018-09-07T10:39:24.939Z,20.30
2018-09-07T10:41:54.910Z,20.20
2018-09-07T10:44:23.435Z,20.20
2018-09-07T10:46:53.199Z,20.20
2018-09-07T10:49:22.043Z,20.20
2018-09-07T10:51:53.091Z,20.30
2018-09-07T10:54:23.358Z,20.30
2018-09-07T10:56:52.482Z,20.40
2018-09-07T10:59:21.833Z,20.40
2018-09-07T11:01:51.667Z,20.50
2018-09-07T11:04:20.557Z,20.50
2018-09-07T11:06:49.065Z,20.50
2018-09-07T11:09:18.441Z,20.50
2018-09-07T11:11:47.286Z,20.60
2018-09-07T11:14:16.154Z,20.50
2018-09-07T11:16:44.663Z,20.60
2018-09-07T11:19:13.911Z,20.60
2018-09-07T11:21:42.898Z,20.60
2018-09-07T11:24:14.956Z,20.60
2018-09-07T11:26:45.282Z,20.60
2018-09-07T11:29:30.110Z,20.50
2018-09-07T11:32:01.226Z,20.30
2018-09-07T11:34:31.892Z,20.10
2018-09-07T11:37:02.304Z,20.00
2018-09-07T11:39:30.925Z,20.00
2018-09-07T11:41:59.461Z,19.90
2018-09-07T11:44:28.412Z,19.90
2018-09-07T11:46:58.693Z,19.90
2018-09-07T11:49:27.365Z,19.90
2018-09-07T11:51:56.087Z,19.90
2018-09-07T11:54:24.637Z,19.90
2018-09-07T11:56:53.222Z,19.90
2018-09-07T11:59:21.866Z,19.90
2018-09-07T12:01:55.232Z,20.00
2018-09-07T12:04:24.076Z,20.00
2018-09-07T12:06:52.710Z,20.00
2018-09-07T12:09:21.996Z,20.10
2018-09-07T12:11:51.128Z,20.20
2018-09-07T12:14:20.033Z,20.10
2018-09-07T12:16:50.003Z,20.10
2018-09-07T12:19:18.877Z,20.10
2018-09-07T12:21:49.353Z,20.10
2018-09-07T12:24:17.857Z,20.20
2018-09-07T12:26:46.416Z,20.30
2018-09-07T12:29:16.504Z,20.50
2018-09-07T12:31:47.670Z,20.80
2018-09-07T12:34:18.684Z,21.20
2018-09-07T12:36:53.130Z,21.30
2018-09-07T12:39:21.671Z,21.30
2018-09-07T12:41:50.771Z,21.40
2018-09-07T12:44:19.344Z,21.50
2018-09-07T12:46:49.078Z,21.40
2018-09-07T12:49:18.406Z,21.40
2018-09-07T12:51:46.966Z,21.40
2018-09-07T12:54:16.082Z,21.50
2018-09-07T12:56:46.642Z,21.50
2018-09-07T12:59:15.381Z,21.50
2018-09-07T13:01:43.918Z,21.60
2018-09-07T13:04:13.242Z,21.70
2018-09-07T13:06:43.675Z,21.70
2018-09-07T13:09:14.658Z,21.90
2018-09-07T13:11:43.386Z,22.00
2018-09-07T13:14:13.442Z,21.90
2018-09-07T13:16:44.067Z,21.90
2018-09-07T13:19:13.663Z,21.80
2018-09-07T13:21:44.236Z,21.70
2018-09-07T13:24:13.309Z,21.70
2018-09-07T13:26:42.862Z,21.70
2018-09-07T13:29:12.430Z,21.80
2018-09-07T13:31:41.731Z,22.10
2018-09-07T13:34:10.317Z,22.40
2018-09-07T13:36:39.256Z,22.40
2018-09-07T13:39:10.849Z,22.70
2018-09-07T13:41:39.792Z,23.00
2018-09-07T13:44:10.117Z,23.10
2018-09-07T13:46:39.384Z,23.20
2018-09-07T13:49:09.435Z,23.10
2018-09-07T13:51:39.563Z,23.10
2018-09-07T13:54:08.480Z,23.10
2018-09-07T13:56:37.366Z,22.80
2018-09-07T13:59:07.496Z,22.90
2018-09-07T14:01:37.016Z,23.00
2018-09-07T14:04:06.714Z,23.10
2018-09-07T14:06:35.315Z,23.20
2018-09-07T14:09:06.468Z,23.20
2018-09-07T14:11:35.697Z,23.30
2018-09-07T14:14:04.933Z,23.20
2018-09-07T14:16:35.417Z,23.20
2018-09-07T14:19:06.438Z,23.20
2018-09-07T14:21:34.979Z,23.10
2018-09-07T14:24:05.963Z,23.20
2018-09-07T14:26:35.057Z,23.30
2018-09-07T14:29:04.641Z,23.60
2018-09-07T14:31:33.507Z,23.70
2018-09-07T14:34:03.102Z,23.90
2018-09-07T14:36:32.554Z,23.90
2018-09-07T14:39:01.149Z,24.00
2018-09-07T14:41:29.995Z,24.10
2018-09-07T14:44:00.080Z,24.00
2018-09-07T14:46:28.829Z,24.10
2018-09-07T14:49:27.988Z,24.10
2018-09-07T14:51:57.199Z,24.00
2018-09-07T14:54:27.510Z,23.90
2018-09-07T14:56:57.116Z,23.90
2018-09-07T14:59:26.050Z,24.00
2018-09-07T15:01:54.369Z,24.00
2018-09-07T15:04:25.513Z,24.00
2018-09-07T15:06:55.121Z,24.00
2018-09-07T15:09:26.018Z,24.10
2018-09-07T15:11:55.164Z,24.10
2018-09-07T15:14:23.708Z,24.20
2018-09-07T15:16:52.565Z,24.40
2018-09-07T15:19:22.451Z,24.60
2018-09-07T15:21:50.981Z,24.50
2018-09-07T15:24:19.939Z,24.40
2018-09-07T15:26:50.210Z,24.50
2018-09-07T15:29:19.481Z,24.40
2018-09-07T15:31:47.718Z,24.50
2018-09-07T15:34:17.202Z,24.40
2018-09-07T15:36:46.224Z,24.30
2018-09-07T15:44:01.874Z,24.40
2018-09-07T15:46:30.508Z,24.60
2018-09-07T15:48:59.392Z,24.70
2018-09-07T15:51:29.224Z,24.60
2018-09-07T15:53:57.442Z,24.50
2018-09-07T15:56:26.352Z,24.40
2018-09-07T15:58:56.714Z,24.40
2018-09-07T16:01:25.635Z,24.60
2018-09-07T16:03:54.223Z,24.70
2018-09-07T16:06:22.494Z,24.60
2018-09-07T16:08:50.719Z,24.60
2018-09-07T16:11:18.961Z,24.60
2018-09-07T16:13:47.192Z,24.60
2018-09-07T16:16:15.442Z,24.70
2018-09-07T16:18:44.053Z,24.50
2018-09-07T16:21:12.600Z,24.40
2018-09-07T16:23:41.667Z,24.30
2018-09-07T16:26:10.248Z,24.40
2018-09-07T16:28:39.304Z,24.20
2018-09-07T16:31:08.107Z,24.00
2018-09-07T16:33:37.497Z,23.90
2018-09-07T16:36:06.537Z,23.70
2018-09-07T16:38:35.269Z,23.60
2018-09-07T16:41:04.761Z,23.50
2018-09-07T16:43:33.951Z,23.40
2018-09-07T16:46:02.839Z,23.40
2018-09-07T16:48:31.887Z,23.30
2018-09-07T16:51:00.380Z,23.20
2018-09-07T16:53:28.869Z,23.10
2018-09-07T16:55:57.357Z,23.00
2018-09-07T16:58:26.846Z,23.00
2018-09-07T17:00:55.341Z,22.80
2018-09-07T17:03:24.144Z,22.70
2018-09-07T17:05:53.969Z,22.60
2018-09-07T17:08:26.916Z,22.60
2018-09-07T17:10:56.725Z,22.50
2018-09-07T17:13:25.227Z,22.40
2018-09-07T17:15:58.074Z,22.40
2018-09-07T17:18:29.947Z,22.30
2018-09-07T17:21:00.721Z,22.20
2018-09-07T17:23:30.129Z,22.10
2018-09-07T17:26:00.553Z,22.10
2018-09-07T17:28:29.372Z,22.00
2018-09-07T17:30:57.922Z,21.90
2018-09-07T17:33:26.418Z,21.80
2018-09-07T17:35:55.339Z,21.70
2018-09-07T17:38:24.842Z,21.70
2018-09-07T17:40:53.654Z,21.70
2018-09-07T17:43:22.153Z,21.60
2018-09-07T17:45:51.972Z,21.50
2018-09-07T17:48:25.390Z,21.50
2018-09-07T17:50:55.890Z,21.40
2018-09-07T17:53:25.474Z,21.40
2018-09-07T17:55:57.490Z,21.40
2018-09-07T17:58:26.026Z,21.40
2018-09-07T18:00:54.674Z,21.30
2018-09-07T18:03:23.608Z,21.30
2018-09-07T18:05:59.938Z,21.30
2018-09-07T18:08:29.290Z,21.20
2018-09-07T18:11:00.653Z,21.20
2018-09-07T18:13:29.165Z,21.10
2018-09-07T18:15:57.804Z,21.10
2018-09-07T18:18:26.649Z,21.10
2018-09-07T18:20:55.367Z,21.10
2018-09-07T18:23:24.133Z,21.10
2018-09-07T18:25:52.703Z,21.10
2018-09-07T18:28:22.218Z,21.10
2018-09-07T18:30:52.226Z,21.00
2018-09-07T18:37:41.857Z,20.90
2018-09-07T18:40:10.934Z,20.80
2018-09-07T18:45:35.535Z,20.80
2018-09-07T18:48:04.097Z,20.80
2018-09-07T18:50:32.637Z,20.80
2018-09-07T18:53:12.286Z,20.80
2018-09-07T18:55:42.206Z,20.70
2018-09-07T18:58:12.869Z,20.80
2018-09-07T19:00:44.166Z,20.80
2018-09-07T19:03:13.002Z,20.80
2018-09-07T19:05:47.414Z,20.80
2018-09-07T19:08:19.709Z,20.80
2018-09-07T19:10:54.493Z,20.90
2018-09-07T19:16:03.887Z,20.60
2018-09-07T19:18:37.053Z,20.60
2018-09-07T19:24:00.126Z,20.60
2018-09-07T19:26:39.458Z,20.50
2018-09-07T19:29:08.389Z,20.30
2018-09-07T19:31:37.002Z,20.10
2018-09-07T19:34:06.342Z,20.00
2018-09-07T19:36:35.530Z,19.90
2018-09-07T19:39:05.770Z,19.60
2018-09-07T19:41:35.575Z,19.50
2018-09-07T19:44:04.459Z,19.30
2018-09-07T19:46:36.477Z,19.20
2018-09-07T19:49:12.942Z,19.20
2018-09-07T19:51:43.656Z,18.90
2018-09-07T19:54:19.880Z,18.80
2018-09-07T19:56:49.557Z,18.70
2018-09-07T19:59:18.902Z,18.50
2018-09-07T20:01:47.778Z,18.50
2018-09-07T20:04:20.758Z,18.40
2018-09-07T20:06:51.374Z,18.40
2018-09-07T20:09:29.996Z,18.40
2018-09-07T20:17:38.861Z,18.50
2018-09-07T20:20:24.484Z,18.50
2018-09-07T20:22:54.263Z,18.50
2018-09-07T20:25:23.982Z,18.40
2018-09-07T20:27:53.271Z,18.50
2018-09-07T20:31:11.754Z,18.40
2018-09-07T20:33:46.411Z,18.40
2018-09-07T20:36:16.514Z,18.30
2018-09-07T20:38:45.811Z,18.30
2018-09-07T20:41:16.428Z,18.30
2018-09-07T20:43:46.854Z,18.30
2018-09-07T20:46:17.509Z,18.30
2018-09-07T20:48:51.613Z,18.30
2018-09-07T20:52:12.485Z,18.30
2018-09-07T20:54:52.974Z,18.30
2018-09-07T20:57:22.562Z,18.30
2018-09-07T21:00:17.713Z,18.20
2018-09-07T21:27:53.390Z,18.30
2018-09-07T21:30:37.756Z,18.40
2018-09-07T21:33:19.454Z,18.40
2018-09-07T21:36:06.170Z,18.40
2018-09-07T21:38:48.327Z,18.40
2018-09-07T21:46:51.124Z,18.40
2018-09-07T21:52:06.006Z,18.40
2018-09-07T21:57:43.681Z,18.30
2018-09-07T22:00:32.875Z,18.30
2018-09-07T22:11:24.816Z,18.30
2018-09-07T22:14:06.499Z,18.30
2018-09-07T22:40:30.185Z,18.20
2018-09-07T22:42:59.736Z,18.10
2018-09-07T22:45:29.529Z,18.00
2018-09-07T22:48:00.295Z,17.90
2018-09-07T22:50:29.572Z,17.90
2018-09-07T22:53:00.281Z,17.90
2018-09-07T22:55:29.025Z,17.90
2018-09-07T22:57:58.382Z,17.80
2018-09-07T23:00:27.785Z,17.80
2018-09-07T23:02:57.766Z,17.80
2018-09-07T23:05:32.329Z,17.80
2018-09-07T23:08:03.265Z,17.70
2018-09-07T23:10:32.836Z,17.70
2018-09-07T23:13:01.627Z,17.70
2018-09-07T23:15:31.503Z,17.70
2018-09-07T23:18:00.375Z,17.70
2018-09-07T23:20:29.422Z,17.70
2018-09-07T23:22:58.450Z,17.60
2018-09-07T23:25:27.293Z,17.60
2018-09-07T23:27:55.936Z,17.50
2018-09-07T23:30:25.152Z,17.50
2018-09-07T23:32:54.890Z,17.50
2018-09-07T23:35:24.557Z,17.50
2018-09-07T23:37:56.380Z,17.50
2018-09-07T23:40:33.242Z,17.50
2018-09-07T23:43:06.424Z,17.50
2018-09-07T23:45:35.149Z,17.50
2018-09-07T23:48:05.474Z,17.40
2018-09-07T23:50:35.808Z,17.40
2018-09-07T23:53:06.235Z,17.40
2018-09-07T23:55:34.982Z,17.40
2018-09-07T23:58:03.660Z,17.40
